sensor_id;sensor_type;location;lat;lon;timestamp;P1;durP1;ratioP1;P2;durP2;ratioP2
71106;SDS011;58763;47.982;11.516;2022-12-07T00:01:24;25.00;;;12.35;;
71106;SDS011;58763;47.982;11.516;2022-12-07T00:03:50;23.05;;;11.02;;
71106;SDS011;58763;47.982;11.516;2022-12-07T00:06:17;22.50;;;10.80;;
71106;SDS011;58763;47.982;11.516;2022-12-07T00:08:44;21.40;;;10.75;;
71106;SDS011;58763;47.982;11.516;2022-12-07T00:11:12;24.58;;;10.98;;
71106;SDS011;58763;47.982;11.516;2022-12-07T00:13:40;22.20;;;10.82;;
71106;SDS011;58763;47.982;11.516;2022-12-07T00:16:07;20.42;;;10.65;;
71106;SDS011;58763;47.982;11.516;2022-12-07T00:18:34;22.95;;;10.43;;
71106;SDS011;58763;47.982;11.516;2022-12-07T00:21:07;21.80;;;10.43;;
71106;SDS011;58763;47.982;11.516;2022-12-07T00:23:42;24.45;;;11.15;;
71106;SDS011;58763;47.982;11.516;2022-12-07T00:26:13;18.95;;;9.48;;
71106;SDS011;58763;47.982;11.516;2022-12-07T00:28:44;20.10;;;9.27;;
71106;SDS011;58763;47.982;11.516;2022-12-07T00:31:12;20.77;;;9.48;;
71106;SDS011;58763;47.982;11.516;2022-12-07T00:33:39;19.63;;;9.75;;
71106;SDS011;58763;47.982;11.516;2022-12-07T00:36:07;18.58;;;9.57;;
71106;SDS011;58763;47.982;11.516;2022-12-07T00:38:34;19.40;;;9.55;;
71106;SDS011;58763;47.982;11.516;2022-12-07T00:41:03;20.77;;;10.25;;
71106;SDS011;58763;47.982;11.516;2022-12-07T00:43:35;20.58;;;9.48;;
71106;SDS011;58763;47.982;11.516;2022-12-07T00:46:00;19.70;;;9.77;;
71106;SDS011;58763;47.982;11.516;2022-12-07T00:48:26;20.83;;;9.70;;
71106;SDS011;58763;47.982;11.516;2022-12-07T00:50:52;18.30;;;8.88;;
71106;SDS011;58763;47.982;11.516;2022-12-07T00:53:18;17.90;;;9.07;;
71106;SDS011;58763;47.982;11.516;2022-12-07T00:55:44;20.73;;;9.23;;
71106;SDS011;58763;47.982;11.516;2022-12-07T00:58:10;19.58;;;9.50;;
71106;SDS011;58763;47.982;11.516;2022-12-07T01:00:37;18.58;;;9.20;;
71106;SDS011;58763;47.982;11.516;2022-12-07T01:03:05;18.35;;;9.10;;
71106;SDS011;58763;47.982;11.516;2022-12-07T01:05:31;18.58;;;9.85;;
71106;SDS011;58763;47.982;11.516;2022-12-07T01:07:57;17.75;;;8.82;;
71106;SDS011;58763;47.982;11.516;2022-12-07T01:10:22;18.88;;;9.25;;
71106;SDS011;58763;47.982;11.516;2022-12-07T01:12:48;16.83;;;8.43;;
71106;SDS011;58763;47.982;11.516;2022-12-07T01:15:14;16.65;;;9.05;;
71106;SDS011;58763;47.982;11.516;2022-12-07T01:17:40;19.75;;;9.77;;
71106;SDS011;58763;47.982;11.516;2022-12-07T01:20:05;19.80;;;9.10;;
71106;SDS011;58763;47.982;11.516;2022-12-07T01:22:35;17.67;;;9.27;;
71106;SDS011;58763;47.982;11.516;2022-12-07T01:25:05;16.45;;;9.05;;
71106;SDS011;58763;47.982;11.516;2022-12-07T01:27:34;18.35;;;8.82;;
71106;SDS011;58763;47.982;11.516;2022-12-07T01:30:00;19.58;;;9.48;;
71106;SDS011;58763;47.982;11.516;2022-12-07T01:32:26;18.15;;;8.95;;
71106;SDS011;58763;47.982;11.516;2022-12-07T01:34:52;19.60;;;9.23;;
71106;SDS011;58763;47.982;11.516;2022-12-07T01:37:17;18.33;;;9.00;;
71106;SDS011;58763;47.982;11.516;2022-12-07T01:39:43;18.70;;;9.73;;
71106;SDS011;58763;47.982;11.516;2022-12-07T01:42:09;17.50;;;9.05;;
71106;SDS011;58763;47.982;11.516;2022-12-07T01:47:39;17.10;;;9.13;;
71106;SDS011;58763;47.982;11.516;2022-12-07T01:50:04;18.20;;;8.30;;
71106;SDS011;58763;47.982;11.516;2022-12-07T01:52:31;19.45;;;9.18;;
71106;SDS011;58763;47.982;11.516;2022-12-07T01:55:00;16.23;;;8.50;;
71106;SDS011;58763;47.982;11.516;2022-12-07T01:57:30;17.75;;;9.18;;
71106;SDS011;58763;47.982;11.516;2022-12-07T01:59:57;19.65;;;9.00;;
71106;SDS011;58763;47.982;11.516;2022-12-07T02:02:30;16.67;;;8.32;;
71106;SDS011;58763;47.982;11.516;2022-12-07T02:04:59;17.33;;;8.07;;
71106;SDS011;58763;47.982;11.516;2022-12-07T02:07:26;21.15;;;9.23;;
71106;SDS011;58763;47.982;11.516;2022-12-07T02:09:54;18.05;;;9.27;;
71106;SDS011;58763;47.982;11.516;2022-12-07T02:12:19;18.92;;;8.80;;
71106;SDS011;58763;47.982;11.516;2022-12-07T02:14:46;17.40;;;9.05;;
71106;SDS011;58763;47.982;11.516;2022-12-07T02:19:58;18.33;;;8.90;;
71106;SDS011;58763;47.982;11.516;2022-12-07T02:30:19;16.92;;;8.68;;
71106;SDS011;58763;47.982;11.516;2022-12-07T02:32:57;18.05;;;8.52;;
71106;SDS011;58763;47.982;11.516;2022-12-07T02:35:30;17.52;;;8.65;;
71106;SDS011;58763;47.982;11.516;2022-12-07T02:38:08;15.88;;;8.25;;
71106;SDS011;58763;47.982;11.516;2022-12-07T02:41:11;16.42;;;8.63;;
71106;SDS011;58763;47.982;11.516;2022-12-07T02:43:50;17.48;;;8.60;;
71106;SDS011;58763;47.982;11.516;2022-12-07T02:46:22;16.27;;;8.30;;
71106;SDS011;58763;47.982;11.516;2022-12-07T02:48:53;16.50;;;8.48;;
71106;SDS011;58763;47.982;11.516;2022-12-07T02:51:20;17.73;;;8.32;;
71106;SDS011;58763;47.982;11.516;2022-12-07T02:53:46;17.25;;;8.80;;
71106;SDS011;58763;47.982;11.516;2022-12-07T03:05:06;17.42;;;8.40;;
71106;SDS011;58763;47.982;11.516;2022-12-07T03:18:49;16.48;;;7.95;;
71106;SDS011;58763;47.982;11.516;2022-12-07T03:21:23;15.63;;;7.97;;
71106;SDS011;58763;47.982;11.516;2022-12-07T03:23:54;15.57;;;8.60;;
71106;SDS011;58763;47.982;11.516;2022-12-07T03:26:25;14.98;;;8.18;;
71106;SDS011;58763;47.982;11.516;2022-12-07T03:28:58;19.45;;;8.40;;
71106;SDS011;58763;47.982;11.516;2022-12-07T03:31:38;15.43;;;7.35;;
71106;SDS011;58763;47.982;11.516;2022-12-07T03:34:12;15.05;;;7.70;;
71106;SDS011;58763;47.982;11.516;2022-12-07T03:40:12;15.52;;;7.68;;
71106;SDS011;58763;47.982;11.516;2022-12-07T03:42:35;18.35;;;8.13;;
71106;SDS011;58763;47.982;11.516;2022-12-07T03:45:02;14.68;;;7.68;;
71106;SDS011;58763;47.982;11.516;2022-12-07T03:47:46;15.65;;;8.40;;
71106;SDS011;58763;47.982;11.516;2022-12-07T03:50:23;14.30;;;7.38;;
71106;SDS011;58763;47.982;11.516;2022-12-07T03:55:39;15.20;;;8.20;;
71106;SDS011;58763;47.982;11.516;2022-12-07T03:58:12;15.75;;;8.23;;
71106;SDS011;58763;47.982;11.516;2022-12-07T04:00:43;13.90;;;7.22;;
71106;SDS011;58763;47.982;11.516;2022-12-07T04:03:10;14.38;;;7.18;;
71106;SDS011;58763;47.982;11.516;2022-12-07T04:05:36;14.82;;;7.65;;
71106;SDS011;58763;47.982;11.516;2022-12-07T04:08:03;14.02;;;7.65;;
71106;SDS011;58763;47.982;11.516;2022-12-07T04:10:29;14.55;;;7.60;;
71106;SDS011;58763;47.982;11.516;2022-12-07T04:12:54;14.68;;;8.20;;
71106;SDS011;58763;47.982;11.516;2022-12-07T04:15:20;14.45;;;7.68;;
71106;SDS011;58763;47.982;11.516;2022-12-07T04:17:46;13.57;;;7.35;;
71106;SDS011;58763;47.982;11.516;2022-12-07T04:20:12;14.23;;;7.47;;
71106;SDS011;58763;47.982;11.516;2022-12-07T04:22:37;14.00;;;7.03;;
71106;SDS011;58763;47.982;11.516;2022-12-07T04:25:03;16.23;;;8.02;;
71106;SDS011;58763;47.982;11.516;2022-12-07T04:27:30;15.23;;;7.88;;
71106;SDS011;58763;47.982;11.516;2022-12-07T04:29:55;14.13;;;7.60;;
71106;SDS011;58763;47.982;11.516;2022-12-07T04:32:21;14.75;;;7.53;;
71106;SDS011;58763;47.982;11.516;2022-12-07T04:34:47;14.13;;;7.25;;
71106;SDS011;58763;47.982;11.516;2022-12-07T04:37:13;15.02;;;7.85;;
71106;SDS011;58763;47.982;11.516;2022-12-07T04:39:39;16.85;;;8.07;;
71106;SDS011;58763;47.982;11.516;2022-12-07T04:42:04;18.13;;;8.15;;
71106;SDS011;58763;47.982;11.516;2022-12-07T04:44:30;17.73;;;7.82;;
71106;SDS011;58763;47.982;11.516;2022-12-07T04:46:56;15.30;;;8.07;;
71106;SDS011;58763;47.982;11.516;2022-12-07T04:49:22;16.08;;;8.30;;
71106;SDS011;58763;47.982;11.516;2022-12-07T04:51:49;15.95;;;7.80;;
71106;SDS011;58763;47.982;11.516;2022-12-07T04:54:15;15.88;;;8.45;;
71106;SDS011;58763;47.982;11.516;2022-12-07T04:56:41;15.98;;;8.15;;
71106;SDS011;58763;47.982;11.516;2022-12-07T04:59:09;15.18;;;8.35;;
71106;SDS011;58763;47.982;11.516;2022-12-07T05:01:35;14.85;;;8.13;;
71106;SDS011;58763;47.982;11.516;2022-12-07T05:04:01;13.98;;;7.63;;
71106;SDS011;58763;47.982;11.516;2022-12-07T05:06:27;14.30;;;7.53;;
71106;SDS011;58763;47.982;11.516;2022-12-07T05:08:53;13.98;;;7.78;;
71106;SDS011;58763;47.982;11.516;2022-12-07T05:11:18;14.70;;;7.65;;
71106;SDS011;58763;47.982;11.516;2022-12-07T05:14:04;14.05;;;7.47;;
71106;SDS011;58763;47.982;11.516;2022-12-07T05:16:41;14.73;;;7.80;;
71106;SDS011;58763;47.982;11.516;2022-12-07T05:19:07;14.50;;;7.78;;
71106;SDS011;58763;47.982;11.516;2022-12-07T05:21:33;12.65;;;7.10;;
71106;SDS011;58763;47.982;11.516;2022-12-07T05:23:59;12.55;;;7.07;;
71106;SDS011;58763;47.982;11.516;2022-12-07T05:26:26;12.82;;;7.30;;
71106;SDS011;58763;47.982;11.516;2022-12-07T05:28:52;12.40;;;7.32;;
71106;SDS011;58763;47.982;11.516;2022-12-07T05:31:19;12.88;;;7.18;;
71106;SDS011;58763;47.982;11.516;2022-12-07T05:33:44;13.45;;;7.07;;
71106;SDS011;58763;47.982;11.516;2022-12-07T05:36:09;13.35;;;6.85;;
71106;SDS011;58763;47.982;11.516;2022-12-07T05:38:35;13.20;;;6.78;;
71106;SDS011;58763;47.982;11.516;2022-12-07T05:41:02;13.30;;;7.15;;
71106;SDS011;58763;47.982;11.516;2022-12-07T05:43:29;12.68;;;6.80;;
71106;SDS011;58763;47.982;11.516;2022-12-07T05:45:55;13.15;;;7.35;;
71106;SDS011;58763;47.982;11.516;2022-12-07T05:48:21;12.45;;;6.78;;
71106;SDS011;58763;47.982;11.516;2022-12-07T05:50:47;11.88;;;6.72;;
71106;SDS011;58763;47.982;11.516;2022-12-07T05:53:13;12.20;;;6.68;;
71106;SDS011;58763;47.982;11.516;2022-12-07T05:55:39;13.15;;;7.10;;
71106;SDS011;58763;47.982;11.516;2022-12-07T05:58:05;12.73;;;6.95;;
71106;SDS011;58763;47.982;11.516;2022-12-07T06:00:48;11.45;;;6.78;;
71106;SDS011;58763;47.982;11.516;2022-12-07T06:03:14;15.82;;;7.10;;
71106;SDS011;58763;47.982;11.516;2022-12-07T06:05:40;10.57;;;6.00;;
71106;SDS011;58763;47.982;11.516;2022-12-07T06:08:05;10.65;;;5.72;;
71106;SDS011;58763;47.982;11.516;2022-12-07T06:10:31;10.35;;;5.50;;
71106;SDS011;58763;47.982;11.516;2022-12-07T06:12:56;10.45;;;5.47;;
71106;SDS011;58763;47.982;11.516;2022-12-07T06:15:22;11.88;;;5.97;;
71106;SDS011;58763;47.982;11.516;2022-12-07T06:17:48;10.85;;;5.75;;
71106;SDS011;58763;47.982;11.516;2022-12-07T06:20:17;11.35;;;5.95;;
71106;SDS011;58763;47.982;11.516;2022-12-07T06:22:43;11.02;;;5.63;;
71106;SDS011;58763;47.982;11.516;2022-12-07T06:25:08;13.75;;;6.97;;
71106;SDS011;58763;47.982;11.516;2022-12-07T06:27:35;11.32;;;5.65;;
71106;SDS011;58763;47.982;11.516;2022-12-07T06:30:00;11.85;;;5.97;;
71106;SDS011;58763;47.982;11.516;2022-12-07T06:32:31;11.23;;;6.40;;
71106;SDS011;58763;47.982;11.516;2022-12-07T06:34:58;11.93;;;6.32;;
71106;SDS011;58763;47.982;11.516;2022-12-07T06:37:24;10.85;;;6.22;;
71106;SDS011;58763;47.982;11.516;2022-12-07T06:39:49;10.57;;;5.82;;
71106;SDS011;58763;47.982;11.516;2022-12-07T06:42:15;11.82;;;6.72;;
71106;SDS011;58763;47.982;11.516;2022-12-07T06:44:41;11.57;;;6.40;;
71106;SDS011;58763;47.982;11.516;2022-12-07T06:47:08;11.90;;;6.35;;
71106;SDS011;58763;47.982;11.516;2022-12-07T06:49:34;12.35;;;6.38;;
71106;SDS011;58763;47.982;11.516;2022-12-07T06:52:00;11.27;;;5.75;;
71106;SDS011;58763;47.982;11.516;2022-12-07T06:54:25;11.27;;;6.38;;
71106;SDS011;58763;47.982;11.516;2022-12-07T06:56:51;12.00;;;6.65;;
71106;SDS011;58763;47.982;11.516;2022-12-07T06:59:16;12.10;;;6.10;;
71106;SDS011;58763;47.982;11.516;2022-12-07T07:01:42;11.75;;;6.05;;
71106;SDS011;58763;47.982;11.516;2022-12-07T07:04:07;10.75;;;6.10;;
71106;SDS011;58763;47.982;11.516;2022-12-07T07:06:33;12.20;;;6.75;;
71106;SDS011;58763;47.982;11.516;2022-12-07T07:08:58;10.77;;;5.65;;
71106;SDS011;58763;47.982;11.516;2022-12-07T07:11:24;13.13;;;6.82;;
71106;SDS011;58763;47.982;11.516;2022-12-07T07:13:50;11.57;;;6.40;;
71106;SDS011;58763;47.982;11.516;2022-12-07T07:16:15;13.10;;;6.82;;
71106;SDS011;58763;47.982;11.516;2022-12-07T07:18:41;14.30;;;7.68;;
71106;SDS011;58763;47.982;11.516;2022-12-07T07:21:06;15.98;;;7.88;;
71106;SDS011;58763;47.982;11.516;2022-12-07T07:23:32;14.00;;;7.80;;
71106;SDS011;58763;47.982;11.516;2022-12-07T07:25:57;13.63;;;7.55;;
71106;SDS011;58763;47.982;11.516;2022-12-07T07:28:23;12.65;;;6.80;;
71106;SDS011;58763;47.982;11.516;2022-12-07T07:30:49;10.93;;;6.03;;
71106;SDS011;58763;47.982;11.516;2022-12-07T07:33:14;13.52;;;7.00;;
71106;SDS011;58763;47.982;11.516;2022-12-07T07:35:40;12.13;;;6.57;;
71106;SDS011;58763;47.982;11.516;2022-12-07T07:38:06;12.82;;;6.53;;
71106;SDS011;58763;47.982;11.516;2022-12-07T07:40:32;12.30;;;6.43;;
71106;SDS011;58763;47.982;11.516;2022-12-07T07:42:58;12.65;;;7.05;;
71106;SDS011;58763;47.982;11.516;2022-12-07T07:45:25;13.43;;;7.50;;
71106;SDS011;58763;47.982;11.516;2022-12-07T07:47:51;12.82;;;6.57;;
71106;SDS011;58763;47.982;11.516;2022-12-07T07:50:17;12.13;;;6.97;;
71106;SDS011;58763;47.982;11.516;2022-12-07T07:52:43;11.40;;;6.45;;
71106;SDS011;58763;47.982;11.516;2022-12-07T07:55:09;14.32;;;7.82;;
71106;SDS011;58763;47.982;11.516;2022-12-07T07:57:35;13.38;;;7.20;;
71106;SDS011;58763;47.982;11.516;2022-12-07T08:00:05;13.88;;;7.10;;
71106;SDS011;58763;47.982;11.516;2022-12-07T08:02:33;12.20;;;7.15;;
71106;SDS011;58763;47.982;11.516;2022-12-07T08:04:59;13.23;;;6.93;;
71106;SDS011;58763;47.982;11.516;2022-12-07T08:07:24;15.70;;;7.85;;
71106;SDS011;58763;47.982;11.516;2022-12-07T08:09:50;15.25;;;7.22;;
71106;SDS011;58763;47.982;11.516;2022-12-07T08:12:15;15.27;;;8.27;;
71106;SDS011;58763;47.982;11.516;2022-12-07T08:14:41;15.82;;;8.35;;
71106;SDS011;58763;47.982;11.516;2022-12-07T08:17:07;15.65;;;8.10;;
71106;SDS011;58763;47.982;11.516;2022-12-07T08:19:32;15.13;;;8.07;;
71106;SDS011;58763;47.982;11.516;2022-12-07T08:21:58;16.05;;;8.48;;
71106;SDS011;58763;47.982;11.516;2022-12-07T08:24:24;18.48;;;9.23;;
71106;SDS011;58763;47.982;11.516;2022-12-07T08:26:50;18.60;;;9.25;;
71106;SDS011;58763;47.982;11.516;2022-12-07T08:29:16;15.88;;;8.82;;
71106;SDS011;58763;47.982;11.516;2022-12-07T08:31:42;18.13;;;9.52;;
71106;SDS011;58763;47.982;11.516;2022-12-07T08:34:09;17.23;;;9.30;;
71106;SDS011;58763;47.982;11.516;2022-12-07T08:36:36;28.25;;;12.27;;
71106;SDS011;58763;47.982;11.516;2022-12-07T08:39:01;16.70;;;8.95;;
71106;SDS011;58763;47.982;11.516;2022-12-07T08:41:27;15.77;;;8.27;;
71106;SDS011;58763;47.982;11.516;2022-12-07T08:43:53;15.15;;;8.75;;
71106;SDS011;58763;47.982;11.516;2022-12-07T08:46:20;16.00;;;8.43;;
71106;SDS011;58763;47.982;11.516;2022-12-07T08:48:53;17.08;;;8.90;;
71106;SDS011;58763;47.982;11.516;2022-12-07T08:51:26;16.58;;;9.32;;
71106;SDS011;58763;47.982;11.516;2022-12-07T08:53:52;20.27;;;10.70;;
71106;SDS011;58763;47.982;11.516;2022-12-07T08:56:20;20.73;;;10.07;;
71106;SDS011;58763;47.982;11.516;2022-12-07T08:58:46;19.25;;;10.27;;
71106;SDS011;58763;47.982;11.516;2022-12-07T09:01:12;20.55;;;10.15;;
71106;SDS011;58763;47.982;11.516;2022-12-07T09:03:38;20.73;;;10.85;;
71106;SDS011;58763;47.982;11.516;2022-12-07T09:06:03;20.13;;;10.95;;
71106;SDS011;58763;47.982;11.516;2022-12-07T09:08:31;20.60;;;11.63;;
71106;SDS011;58763;47.982;11.516;2022-12-07T09:11:00;20.10;;;11.27;;
71106;SDS011;58763;47.982;11.516;2022-12-07T09:13:25;19.23;;;11.25;;
71106;SDS011;58763;47.982;11.516;2022-12-07T09:15:51;21.95;;;11.48;;
71106;SDS011;58763;47.982;11.516;2022-12-07T09:18:16;20.38;;;10.82;;
71106;SDS011;58763;47.982;11.516;2022-12-07T09:20:42;19.15;;;10.52;;
71106;SDS011;58763;47.982;11.516;2022-12-07T09:23:08;22.60;;;11.60;;
71106;SDS011;58763;47.982;11.516;2022-12-07T09:25:34;22.15;;;11.52;;
71106;SDS011;58763;47.982;11.516;2022-12-07T09:27:59;22.58;;;11.80;;
71106;SDS011;58763;47.982;11.516;2022-12-07T09:30:25;20.70;;;11.10;;
71106;SDS011;58763;47.982;11.516;2022-12-07T09:32:57;22.70;;;12.20;;
71106;SDS011;58763;47.982;11.516;2022-12-07T09:35:24;23.42;;;11.93;;
71106;SDS011;58763;47.982;11.516;2022-12-07T09:37:50;21.67;;;11.02;;
71106;SDS011;58763;47.982;11.516;2022-12-07T09:40:16;21.85;;;11.70;;
71106;SDS011;58763;47.982;11.516;2022-12-07T09:42:47;24.15;;;11.77;;
71106;SDS011;58763;47.982;11.516;2022-12-07T09:45:26;22.67;;;11.73;;
71106;SDS011;58763;47.982;11.516;2022-12-07T09:47:58;23.35;;;11.20;;
71106;SDS011;58763;47.982;11.516;2022-12-07T09:50:25;23.80;;;11.82;;
71106;SDS011;58763;47.982;11.516;2022-12-07T09:52:52;22.70;;;11.77;;
71106;SDS011;58763;47.982;11.516;2022-12-07T09:55:37;25.33;;;11.23;;
71106;SDS011;58763;47.982;11.516;2022-12-07T09:58:04;24.10;;;12.00;;
71106;SDS011;58763;47.982;11.516;2022-12-07T10:00:30;22.25;;;11.65;;
71106;SDS011;58763;47.982;11.516;2022-12-07T10:02:56;24.40;;;11.95;;
71106;SDS011;58763;47.982;11.516;2022-12-07T10:05:31;26.25;;;12.77;;
71106;SDS011;58763;47.982;11.516;2022-12-07T10:08:01;23.73;;;12.07;;
71106;SDS011;58763;47.982;11.516;2022-12-07T10:10:31;24.40;;;12.27;;
71106;SDS011;58763;47.982;11.516;2022-12-07T10:13:00;22.98;;;11.65;;
71106;SDS011;58763;47.982;11.516;2022-12-07T10:23:40;25.02;;;11.50;;
71106;SDS011;58763;47.982;11.516;2022-12-07T10:26:35;21.98;;;10.93;;
71106;SDS011;58763;47.982;11.516;2022-12-07T10:31:43;22.38;;;10.68;;
71106;SDS011;58763;47.982;11.516;2022-12-07T10:34:22;21.02;;;11.05;;
71106;SDS011;58763;47.982;11.516;2022-12-07T10:36:50;21.85;;;11.02;;
71106;SDS011;58763;47.982;11.516;2022-12-07T10:39:18;22.73;;;11.02;;
71106;SDS011;58763;47.982;11.516;2022-12-07T10:41:55;20.88;;;9.68;;
71106;SDS011;58763;47.982;11.516;2022-12-07T10:44:28;20.00;;;10.23;;
71106;SDS011;58763;47.982;11.516;2022-12-07T10:47:09;20.95;;;10.38;;
71106;SDS011;58763;47.982;11.516;2022-12-07T10:55:33;20.70;;;10.65;;
71106;SDS011;58763;47.982;11.516;2022-12-07T11:03:46;18.80;;;9.93;;
71106;SDS011;58763;47.982;11.516;2022-12-07T11:06:37;20.30;;;10.07;;
71106;SDS011;58763;47.982;11.516;2022-12-07T11:09:44;18.67;;;9.77;;
71106;SDS011;58763;47.982;11.516;2022-12-07T11:12:09;20.08;;;10.52;;
71106;SDS011;58763;47.982;11.516;2022-12-07T11:14:51;20.05;;;10.68;;
71106;SDS011;58763;47.982;11.516;2022-12-07T11:17:31;20.02;;;9.98;;
71106;SDS011;58763;47.982;11.516;2022-12-07T11:23:00;17.80;;;9.50;;
71106;SDS011;58763;47.982;11.516;2022-12-07T11:25:39;17.70;;;8.95;;
71106;SDS011;58763;47.982;11.516;2022-12-07T11:28:21;19.00;;;10.13;;
71106;SDS011;58763;47.982;11.516;2022-12-07T11:31:03;20.48;;;10.65;;
71106;SDS011;58763;47.982;11.516;2022-12-07T11:33:53;20.92;;;10.15;;
71106;SDS011;58763;47.982;11.516;2022-12-07T11:41:44;17.38;;;9.55;;
71106;SDS011;58763;47.982;11.516;2022-12-07T11:46:49;17.23;;;9.27;;
71106;SDS011;58763;47.982;11.516;2022-12-07T11:49:40;18.38;;;10.55;;
71106;SDS011;58763;47.982;11.516;2022-12-07T11:52:20;21.13;;;9.90;;
71106;SDS011;58763;47.982;11.516;2022-12-07T11:54:52;18.95;;;10.15;;
71106;SDS011;58763;47.982;11.516;2022-12-07T11:57:31;19.80;;;10.32;;
71106;SDS011;58763;47.982;11.516;2022-12-07T12:00:05;16.80;;;9.38;;
71106;SDS011;58763;47.982;11.516;2022-12-07T12:02:58;17.33;;;9.30;;
71106;SDS011;58763;47.982;11.516;2022-12-07T12:05:26;19.17;;;9.80;;
71106;SDS011;58763;47.982;11.516;2022-12-07T12:07:59;16.10;;;8.77;;
71106;SDS011;58763;47.982;11.516;2022-12-07T12:18:49;17.40;;;9.63;;
71106;SDS011;58763;47.982;11.516;2022-12-07T12:21:16;27.63;;;15.88;;
71106;SDS011;58763;47.982;11.516;2022-12-07T12:26:15;18.45;;;10.38;;
71106;SDS011;58763;47.982;11.516;2022-12-07T12:29:02;34.20;;;20.30;;
71106;SDS011;58763;47.982;11.516;2022-12-07T12:31:37;23.95;;;13.73;;
71106;SDS011;58763;47.982;11.516;2022-12-07T12:34:29;25.27;;;15.98;;
71106;SDS011;58763;47.982;11.516;2022-12-07T12:36:58;20.60;;;13.23;;
71106;SDS011;58763;47.982;11.516;2022-12-07T12:39:24;34.75;;;20.55;;
71106;SDS011;58763;47.982;11.516;2022-12-07T12:41:51;19.95;;;11.07;;
71106;SDS011;58763;47.982;11.516;2022-12-07T12:51:45;20.45;;;11.60;;
71106;SDS011;58763;47.982;11.516;2022-12-07T12:54:18;19.38;;;11.40;;
71106;SDS011;58763;47.982;11.516;2022-12-07T12:59:42;17.10;;;8.90;;
71106;SDS011;58763;47.982;11.516;2022-12-07T13:02:23;22.85;;;12.45;;
71106;SDS011;58763;47.982;11.516;2022-12-07T13:15:36;19.95;;;10.77;;
71106;SDS011;58763;47.982;11.516;2022-12-07T13:18:03;17.90;;;10.48;;
71106;SDS011;58763;47.982;11.516;2022-12-07T13:20:46;15.07;;;9.00;;
71106;SDS011;58763;47.982;11.516;2022-12-07T13:23:13;33.75;;;22.55;;
71106;SDS011;58763;47.982;11.516;2022-12-07T13:28:46;18.23;;;11.52;;
71106;SDS011;58763;47.982;11.516;2022-12-07T13:33:59;17.58;;;10.80;;
71106;SDS011;58763;47.982;11.516;2022-12-07T13:36:27;16.30;;;10.00;;
71106;SDS011;58763;47.982;11.516;2022-12-07T13:41:43;15.38;;;8.57;;
71106;SDS011;58763;47.982;11.516;2022-12-07T13:44:14;14.18;;;7.90;;
71106;SDS011;58763;47.982;11.516;2022-12-07T13:47:00;14.15;;;7.57;;
71106;SDS011;58763;47.982;11.516;2022-12-07T13:49:36;15.23;;;8.30;;
71106;SDS011;58763;47.982;11.516;2022-12-07T13:54:43;15.32;;;7.97;;
71106;SDS011;58763;47.982;11.516;2022-12-07T13:57:29;15.60;;;7.82;;
71106;SDS011;58763;47.982;11.516;2022-12-07T13:59:57;15.70;;;8.10;;
71106;SDS011;58763;47.982;11.516;2022-12-07T14:02:30;12.93;;;7.10;;
71106;SDS011;58763;47.982;11.516;2022-12-07T14:05:10;13.82;;;7.63;;
71106;SDS011;58763;47.982;11.516;2022-12-07T14:07:47;13.43;;;7.97;;
71106;SDS011;58763;47.982;11.516;2022-12-07T14:10:28;14.10;;;7.85;;
71106;SDS011;58763;47.982;11.516;2022-12-07T14:16:01;16.38;;;7.93;;
71106;SDS011;58763;47.982;11.516;2022-12-07T14:18:40;16.00;;;8.93;;
71106;SDS011;58763;47.982;11.516;2022-12-07T14:23:36;15.70;;;8.52;;
71106;SDS011;58763;47.982;11.516;2022-12-07T14:26:05;16.17;;;8.32;;
71106;SDS011;58763;47.982;11.516;2022-12-07T14:28:36;12.27;;;7.20;;
71106;SDS011;58763;47.982;11.516;2022-12-07T14:31:03;14.02;;;7.63;;
71106;SDS011;58763;47.982;11.516;2022-12-07T14:33:35;16.55;;;7.68;;
71106;SDS011;58763;47.982;11.516;2022-12-07T14:36:00;14.38;;;8.23;;
71106;SDS011;58763;47.982;11.516;2022-12-07T14:38:26;21.23;;;9.65;;
71106;SDS011;58763;47.982;11.516;2022-12-07T14:40:52;17.05;;;8.45;;
71106;SDS011;58763;47.982;11.516;2022-12-07T14:43:19;14.80;;;8.13;;
71106;SDS011;58763;47.982;11.516;2022-12-07T14:45:45;14.30;;;7.53;;
71106;SDS011;58763;47.982;11.516;2022-12-07T14:48:11;15.60;;;7.55;;
71106;SDS011;58763;47.982;11.516;2022-12-07T14:50:39;14.70;;;7.85;;
71106;SDS011;58763;47.982;11.516;2022-12-07T14:53:17;14.32;;;7.40;;
71106;SDS011;58763;47.982;11.516;2022-12-07T14:55:47;11.55;;;6.82;;
71106;SDS011;58763;47.982;11.516;2022-12-07T14:58:16;14.23;;;7.57;;
71106;SDS011;58763;47.982;11.516;2022-12-07T15:00:43;13.82;;;7.43;;
71106;SDS011;58763;47.982;11.516;2022-12-07T15:03:09;14.18;;;8.27;;
71106;SDS011;58763;47.982;11.516;2022-12-07T15:05:34;15.40;;;7.93;;
71106;SDS011;58763;47.982;11.516;2022-12-07T15:08:01;15.48;;;7.75;;
71106;SDS011;58763;47.982;11.516;2022-12-07T15:10:28;17.20;;;8.73;;
71106;SDS011;58763;47.982;11.516;2022-12-07T15:13:00;16.17;;;8.27;;
71106;SDS011;58763;47.982;11.516;2022-12-07T15:15:50;16.88;;;8.05;;
71106;SDS011;58763;47.982;11.516;2022-12-07T15:18:17;15.55;;;8.23;;
71106;SDS011;58763;47.982;11.516;2022-12-07T15:20:43;14.13;;;7.53;;
71106;SDS011;58763;47.982;11.516;2022-12-07T15:23:10;16.48;;;8.73;;
71106;SDS011;58763;47.982;11.516;2022-12-07T15:25:35;25.98;;;12.73;;
71106;SDS011;58763;47.982;11.516;2022-12-07T15:28:01;37.33;;;16.92;;
71106;SDS011;58763;47.982;11.516;2022-12-07T15:30:28;23.13;;;11.43;;
71106;SDS011;58763;47.982;11.516;2022-12-07T15:32:53;16.92;;;8.70;;
71106;SDS011;58763;47.982;11.516;2022-12-07T15:35:20;16.13;;;7.85;;
71106;SDS011;58763;47.982;11.516;2022-12-07T15:37:46;15.57;;;7.80;;
71106;SDS011;58763;47.982;11.516;2022-12-07T15:40:12;16.20;;;8.32;;
71106;SDS011;58763;47.982;11.516;2022-12-07T15:42:39;14.05;;;8.30;;
71106;SDS011;58763;47.982;11.516;2022-12-07T15:45:06;15.60;;;8.48;;
71106;SDS011;58763;47.982;11.516;2022-12-07T15:47:37;15.07;;;8.15;;
71106;SDS011;58763;47.982;11.516;2022-12-07T15:50:08;15.55;;;8.27;;
71106;SDS011;58763;47.982;11.516;2022-12-07T15:52:42;17.15;;;8.63;;
71106;SDS011;58763;47.982;11.516;2022-12-07T15:55:08;15.68;;;8.52;;
71106;SDS011;58763;47.982;11.516;2022-12-07T15:57:35;16.42;;;8.38;;
71106;SDS011;58763;47.982;11.516;2022-12-07T16:00:03;15.57;;;7.93;;
71106;SDS011;58763;47.982;11.516;2022-12-07T16:02:30;15.73;;;8.02;;
71106;SDS011;58763;47.982;11.516;2022-12-07T16:04:55;15.07;;;8.20;;
71106;SDS011;58763;47.982;11.516;2022-12-07T16:07:21;18.27;;;8.77;;
71106;SDS011;58763;47.982;11.516;2022-12-07T16:09:47;15.50;;;8.60;;
71106;SDS011;58763;47.982;11.516;2022-12-07T16:12:13;14.73;;;8.18;;
71106;SDS011;58763;47.982;11.516;2022-12-07T16:14:39;16.50;;;8.60;;
71106;SDS011;58763;47.982;11.516;2022-12-07T16:17:06;16.38;;;8.63;;
71106;SDS011;58763;47.982;11.516;2022-12-07T16:19:32;15.70;;;8.65;;
71106;SDS011;58763;47.982;11.516;2022-12-07T16:21:58;15.18;;;8.95;;
71106;SDS011;58763;47.982;11.516;2022-12-07T16:24:24;15.27;;;8.05;;
71106;SDS011;58763;47.982;11.516;2022-12-07T16:26:50;16.75;;;8.52;;
71106;SDS011;58763;47.982;11.516;2022-12-07T16:29:16;17.98;;;8.65;;
71106;SDS011;58763;47.982;11.516;2022-12-07T16:31:43;16.02;;;8.20;;